CYZV

Sept-Îles Airport

Sept-Îles, Quebec, Canada
METAR CYZV 180000Z 06005KT 10SM -SN BR SCT003 OVC009 01/00 A2946 RMK ST4ST4 VIS NE-E 1 -SN INTMT SLP981
Observed Flight Rules
Oct-18 @ 00:00 UTC (an hour ago) Instrument Flight Rules
Wind Visibility Clouds Conditions
60° at 5 knots 10 miles
  • Scattered at 300' AGL
  • Overcast at 900' AGL
  • Light Snow
  • Mist
Temperatures Readings
Current 1°C / 34°F
Dewpoint 0°C / 32°F
Humidity 93%
Altimeter 29.46" Hg
Pressure 998.1 hPa
Elevation 55
METAR CYZV 180000Z 06005KT 10SM -SN BR SCT003 OVC009 01/00 A2946 RMK ST4ST4 VIS NE-E 1 -SN INTMT SLP981
Observed Flight Rules
Oct-18 @ 00:00 UTC
(an hour ago)
IFR
Wind Visibility
60° at 5 knots 10 miles
Clouds
  • Scattered at 300' AGL
  • Overcast at 900' AGL
Conditions
  • Light Snow
  • Mist
Temperature Dewpoint
1°C / 34°F 0°C / 32°F
Humidity Altimeter Pressure
93% 29.46" Hg 998.1 hPa